sensor_id;sensor_type;location;lat;lon;timestamp;temperature;humidity
19552;DHT22;9921;47.186;9.778;2024-01-30T00:01:37;2.90;99.90
19552;DHT22;9921;47.186;9.778;2024-01-30T00:04:04;2.80;99.90
19552;DHT22;9921;47.186;9.778;2024-01-30T00:06:31;2.90;99.90
19552;DHT22;9921;47.186;9.778;2024-01-30T00:08:59;2.90;99.90
19552;DHT22;9921;47.186;9.778;2024-01-30T00:11:26;2.90;99.90
19552;DHT22;9921;47.186;9.778;2024-01-30T00:13:54;2.90;99.90
19552;DHT22;9921;47.186;9.778;2024-01-30T00:16:22;2.90;99.90
19552;DHT22;9921;47.186;9.778;2024-01-30T00:18:49;2.90;99.90
19552;DHT22;9921;47.186;9.778;2024-01-30T00:21:16;2.90;99.90
19552;DHT22;9921;47.186;9.778;2024-01-30T00:23:43;2.90;99.90
19552;DHT22;9921;47.186;9.778;2024-01-30T00:26:11;2.90;99.90
19552;DHT22;9921;47.186;9.778;2024-01-30T00:28:38;2.90;99.90
19552;DHT22;9921;47.186;9.778;2024-01-30T00:31:05;2.80;99.90
19552;DHT22;9921;47.186;9.778;2024-01-30T00:33:32;2.90;99.90
19552;DHT22;9921;47.186;9.778;2024-01-30T00:35:59;2.80;99.90
19552;DHT22;9921;47.186;9.778;2024-01-30T00:38:25;2.60;99.90
19552;DHT22;9921;47.186;9.778;2024-01-30T00:40:52;2.50;99.90
19552;DHT22;9921;47.186;9.778;2024-01-30T00:43:20;2.50;99.90
19552;DHT22;9921;47.186;9.778;2024-01-30T00:45:47;2.40;99.90
19552;DHT22;9921;47.186;9.778;2024-01-30T00:48:14;2.30;99.90
19552;DHT22;9921;47.186;9.778;2024-01-30T00:50:41;2.20;99.90
19552;DHT22;9921;47.186;9.778;2024-01-30T00:53:08;2.20;99.90
19552;DHT22;9921;47.186;9.778;2024-01-30T00:55:35;2.20;99.90
19552;DHT22;9921;47.186;9.778;2024-01-30T00:58:02;2.10;99.90
19552;DHT22;9921;47.186;9.778;2024-01-30T01:00:31;2.00;99.90
19552;DHT22;9921;47.186;9.778;2024-01-30T01:02:58;2.00;99.90
19552;DHT22;9921;47.186;9.778;2024-01-30T01:05:25;1.90;99.90
19552;DHT22;9921;47.186;9.778;2024-01-30T01:07:52;1.90;99.90
19552;DHT22;9921;47.186;9.778;2024-01-30T01:10:20;1.90;99.90
19552;DHT22;9921;47.186;9.778;2024-01-30T01:12:46;1.90;99.90
19552;DHT22;9921;47.186;9.778;2024-01-30T01:15:13;1.80;99.90
19552;DHT22;9921;47.186;9.778;2024-01-30T01:17:41;1.80;99.90
19552;DHT22;9921;47.186;9.778;2024-01-30T01:20:08;1.70;99.90
19552;DHT22;9921;47.186;9.778;2024-01-30T01:22:37;1.80;99.90
19552;DHT22;9921;47.186;9.778;2024-01-30T01:25:06;1.80;99.90
19552;DHT22;9921;47.186;9.778;2024-01-30T01:27:33;1.70;99.90
19552;DHT22;9921;47.186;9.778;2024-01-30T01:30:07;1.70;99.90
19552;DHT22;9921;47.186;9.778;2024-01-30T01:32:35;1.70;99.90
19552;DHT22;9921;47.186;9.778;2024-01-30T01:35:03;1.60;99.90
19552;DHT22;9921;47.186;9.778;2024-01-30T01:37:31;1.50;99.90
19552;DHT22;9921;47.186;9.778;2024-01-30T01:39:57;1.50;99.90
19552;DHT22;9921;47.186;9.778;2024-01-30T01:42:24;1.50;99.90
19552;DHT22;9921;47.186;9.778;2024-01-30T01:44:51;1.50;99.90
19552;DHT22;9921;47.186;9.778;2024-01-30T01:47:18;1.50;99.90
19552;DHT22;9921;47.186;9.778;2024-01-30T01:49:45;1.50;99.90
19552;DHT22;9921;47.186;9.778;2024-01-30T01:52:13;1.50;99.90
19552;DHT22;9921;47.186;9.778;2024-01-30T01:54:40;1.50;99.90
19552;DHT22;9921;47.186;9.778;2024-01-30T01:57:07;1.40;99.90
19552;DHT22;9921;47.186;9.778;2024-01-30T01:59:35;1.30;99.90
19552;DHT22;9921;47.186;9.778;2024-01-30T02:02:02;1.30;99.90
19552;DHT22;9921;47.186;9.778;2024-01-30T02:04:30;1.30;99.90
19552;DHT22;9921;47.186;9.778;2024-01-30T02:06:57;1.40;99.90
19552;DHT22;9921;47.186;9.778;2024-01-30T02:09:25;1.30;99.90
19552;DHT22;9921;47.186;9.778;2024-01-30T02:11:52;1.20;99.90
19552;DHT22;9921;47.186;9.778;2024-01-30T02:14:18;1.20;99.90
19552;DHT22;9921;47.186;9.778;2024-01-30T02:16:45;1.10;99.90
19552;DHT22;9921;47.186;9.778;2024-01-30T02:19:12;1.20;99.90
19552;DHT22;9921;47.186;9.778;2024-01-30T02:21:43;1.10;99.90
19552;DHT22;9921;47.186;9.778;2024-01-30T02:24:10;1.20;99.90
19552;DHT22;9921;47.186;9.778;2024-01-30T02:26:37;1.10;99.90
19552;DHT22;9921;47.186;9.778;2024-01-30T02:29:04;1.10;99.90
19552;DHT22;9921;47.186;9.778;2024-01-30T02:31:30;1.00;99.90
19552;DHT22;9921;47.186;9.778;2024-01-30T02:33:57;1.10;99.90
19552;DHT22;9921;47.186;9.778;2024-01-30T02:36:24;1.10;99.90
19552;DHT22;9921;47.186;9.778;2024-01-30T02:38:52;1.00;99.90
19552;DHT22;9921;47.186;9.778;2024-01-30T02:41:19;1.10;99.90
19552;DHT22;9921;47.186;9.778;2024-01-30T02:43:47;1.10;99.90
19552;DHT22;9921;47.186;9.778;2024-01-30T02:46:17;1.10;99.90
19552;DHT22;9921;47.186;9.778;2024-01-30T02:48:43;1.20;99.90
19552;DHT22;9921;47.186;9.778;2024-01-30T02:51:10;1.10;99.90
19552;DHT22;9921;47.186;9.778;2024-01-30T02:53:37;1.10;99.90
19552;DHT22;9921;47.186;9.778;2024-01-30T02:56:06;1.10;99.90
19552;DHT22;9921;47.186;9.778;2024-01-30T02:58:36;1.20;99.90
19552;DHT22;9921;47.186;9.778;2024-01-30T03:01:03;1.20;99.90
19552;DHT22;9921;47.186;9.778;2024-01-30T03:03:30;1.20;99.90
19552;DHT22;9921;47.186;9.778;2024-01-30T03:05:57;1.20;99.90
19552;DHT22;9921;47.186;9.778;2024-01-30T03:08:24;1.10;99.90
19552;DHT22;9921;47.186;9.778;2024-01-30T03:10:51;1.10;99.90
19552;DHT22;9921;47.186;9.778;2024-01-30T03:13:19;1.10;99.90
19552;DHT22;9921;47.186;9.778;2024-01-30T03:15:46;1.10;99.90
19552;DHT22;9921;47.186;9.778;2024-01-30T03:18:13;1.10;99.90
19552;DHT22;9921;47.186;9.778;2024-01-30T03:20:39;1.00;99.90
19552;DHT22;9921;47.186;9.778;2024-01-30T03:23:06;1.00;99.90
19552;DHT22;9921;47.186;9.778;2024-01-30T03:25:33;1.00;99.90
19552;DHT22;9921;47.186;9.778;2024-01-30T03:28:00;0.90;99.90
19552;DHT22;9921;47.186;9.778;2024-01-30T03:30:28;1.00;99.90
19552;DHT22;9921;47.186;9.778;2024-01-30T03:32:56;1.00;99.90
19552;DHT22;9921;47.186;9.778;2024-01-30T03:35:23;1.10;99.90
19552;DHT22;9921;47.186;9.778;2024-01-30T03:37:50;1.00;99.90
19552;DHT22;9921;47.186;9.778;2024-01-30T03:40:17;1.00;99.90
19552;DHT22;9921;47.186;9.778;2024-01-30T03:42:44;1.10;99.90
19552;DHT22;9921;47.186;9.778;2024-01-30T03:45:11;1.00;99.90
19552;DHT22;9921;47.186;9.778;2024-01-30T03:47:39;1.10;99.90
19552;DHT22;9921;47.186;9.778;2024-01-30T03:50:06;1.00;99.90
19552;DHT22;9921;47.186;9.778;2024-01-30T03:52:35;0.90;99.90
19552;DHT22;9921;47.186;9.778;2024-01-30T03:55:02;0.90;99.90
19552;DHT22;9921;47.186;9.778;2024-01-30T03:57:29;0.80;99.90
19552;DHT22;9921;47.186;9.778;2024-01-30T03:59:56;0.90;99.90
19552;DHT22;9921;47.186;9.778;2024-01-30T04:02:22;0.90;99.90
19552;DHT22;9921;47.186;9.778;2024-01-30T04:04:51;0.90;99.90
19552;DHT22;9921;47.186;9.778;2024-01-30T04:07:18;0.90;99.90
19552;DHT22;9921;47.186;9.778;2024-01-30T04:09:45;0.90;99.90
19552;DHT22;9921;47.186;9.778;2024-01-30T04:12:12;1.00;99.90
19552;DHT22;9921;47.186;9.778;2024-01-30T04:14:39;1.00;99.90
19552;DHT22;9921;47.186;9.778;2024-01-30T04:17:06;1.10;99.90
19552;DHT22;9921;47.186;9.778;2024-01-30T04:19:36;1.00;99.90
19552;DHT22;9921;47.186;9.778;2024-01-30T04:22:05;1.00;99.90
19552;DHT22;9921;47.186;9.778;2024-01-30T04:24:31;1.00;99.90
19552;DHT22;9921;47.186;9.778;2024-01-30T04:26:58;1.00;99.90
19552;DHT22;9921;47.186;9.778;2024-01-30T04:29:25;1.00;99.90
19552;DHT22;9921;47.186;9.778;2024-01-30T04:31:52;0.90;99.90
19552;DHT22;9921;47.186;9.778;2024-01-30T04:34:19;0.80;99.90
19552;DHT22;9921;47.186;9.778;2024-01-30T04:36:45;0.80;99.90
19552;DHT22;9921;47.186;9.778;2024-01-30T04:39:14;0.70;99.90
19552;DHT22;9921;47.186;9.778;2024-01-30T04:41:40;0.70;99.90
19552;DHT22;9921;47.186;9.778;2024-01-30T04:44:07;0.70;99.90
19552;DHT22;9921;47.186;9.778;2024-01-30T04:46:34;0.70;99.90
19552;DHT22;9921;47.186;9.778;2024-01-30T04:49:01;0.70;99.90
19552;DHT22;9921;47.186;9.778;2024-01-30T04:51:29;0.80;99.90
19552;DHT22;9921;47.186;9.778;2024-01-30T04:53:56;0.80;99.90
19552;DHT22;9921;47.186;9.778;2024-01-30T04:56:24;0.70;99.90
19552;DHT22;9921;47.186;9.778;2024-01-30T04:58:53;0.80;99.90
19552;DHT22;9921;47.186;9.778;2024-01-30T05:01:20;0.90;99.90
19552;DHT22;9921;47.186;9.778;2024-01-30T05:03:47;1.00;99.90
19552;DHT22;9921;47.186;9.778;2024-01-30T05:06:24;1.10;99.90
19552;DHT22;9921;47.186;9.778;2024-01-30T05:08:50;1.00;99.90
19552;DHT22;9921;47.186;9.778;2024-01-30T05:11:17;1.00;99.90
19552;DHT22;9921;47.186;9.778;2024-01-30T05:13:45;0.90;99.90
19552;DHT22;9921;47.186;9.778;2024-01-30T05:16:13;0.80;99.90
19552;DHT22;9921;47.186;9.778;2024-01-30T05:18:40;0.80;99.90
19552;DHT22;9921;47.186;9.778;2024-01-30T05:21:06;0.70;99.90
19552;DHT22;9921;47.186;9.778;2024-01-30T05:23:33;0.70;99.90
19552;DHT22;9921;47.186;9.778;2024-01-30T05:26:00;0.70;99.90
19552;DHT22;9921;47.186;9.778;2024-01-30T05:28:28;0.70;99.90
19552;DHT22;9921;47.186;9.778;2024-01-30T05:30:56;0.70;99.90
19552;DHT22;9921;47.186;9.778;2024-01-30T05:33:23;0.70;99.90
19552;DHT22;9921;47.186;9.778;2024-01-30T05:35:50;0.70;99.90
19552;DHT22;9921;47.186;9.778;2024-01-30T05:38:19;0.60;99.90
19552;DHT22;9921;47.186;9.778;2024-01-30T05:40:46;0.60;99.90
19552;DHT22;9921;47.186;9.778;2024-01-30T05:43:13;0.60;99.90
19552;DHT22;9921;47.186;9.778;2024-01-30T05:45:40;0.60;99.90
19552;DHT22;9921;47.186;9.778;2024-01-30T05:48:09;0.50;99.90
19552;DHT22;9921;47.186;9.778;2024-01-30T05:50:35;0.50;99.90
19552;DHT22;9921;47.186;9.778;2024-01-30T05:53:02;0.50;99.90
19552;DHT22;9921;47.186;9.778;2024-01-30T05:55:29;0.50;99.90
19552;DHT22;9921;47.186;9.778;2024-01-30T05:57:56;0.60;99.90
19552;DHT22;9921;47.186;9.778;2024-01-30T06:00:23;0.60;99.90
19552;DHT22;9921;47.186;9.778;2024-01-30T06:02:50;0.60;99.90
19552;DHT22;9921;47.186;9.778;2024-01-30T06:05:18;0.60;99.90
19552;DHT22;9921;47.186;9.778;2024-01-30T06:07:45;0.60;99.90
19552;DHT22;9921;47.186;9.778;2024-01-30T06:10:12;0.60;99.90
19552;DHT22;9921;47.186;9.778;2024-01-30T06:12:39;0.50;99.90
19552;DHT22;9921;47.186;9.778;2024-01-30T06:15:07;0.50;99.90
19552;DHT22;9921;47.186;9.778;2024-01-30T06:17:34;0.50;99.90
19552;DHT22;9921;47.186;9.778;2024-01-30T06:20:01;0.50;99.90
19552;DHT22;9921;47.186;9.778;2024-01-30T06:22:29;0.40;99.90
19552;DHT22;9921;47.186;9.778;2024-01-30T06:24:56;0.40;99.90
19552;DHT22;9921;47.186;9.778;2024-01-30T06:27:23;0.40;99.90
19552;DHT22;9921;47.186;9.778;2024-01-30T06:29:49;0.50;99.90
19552;DHT22;9921;47.186;9.778;2024-01-30T06:32:16;0.40;99.90
19552;DHT22;9921;47.186;9.778;2024-01-30T06:34:43;0.30;99.90
19552;DHT22;9921;47.186;9.778;2024-01-30T06:37:10;0.40;99.90
19552;DHT22;9921;47.186;9.778;2024-01-30T06:39:38;0.40;99.90
19552;DHT22;9921;47.186;9.778;2024-01-30T06:42:05;0.30;99.90
19552;DHT22;9921;47.186;9.778;2024-01-30T06:44:32;0.30;99.90
19552;DHT22;9921;47.186;9.778;2024-01-30T06:46:59;0.30;99.90
19552;DHT22;9921;47.186;9.778;2024-01-30T06:49:26;0.30;99.90
19552;DHT22;9921;47.186;9.778;2024-01-30T06:51:53;0.30;99.90
19552;DHT22;9921;47.186;9.778;2024-01-30T06:54:19;0.40;99.90
19552;DHT22;9921;47.186;9.778;2024-01-30T06:56:48;0.40;99.90
19552;DHT22;9921;47.186;9.778;2024-01-30T06:59:14;0.40;99.90
19552;DHT22;9921;47.186;9.778;2024-01-30T07:01:41;0.40;99.90
19552;DHT22;9921;47.186;9.778;2024-01-30T07:04:08;0.40;99.90
19552;DHT22;9921;47.186;9.778;2024-01-30T07:06:35;0.40;99.90
19552;DHT22;9921;47.186;9.778;2024-01-30T07:09:02;0.40;99.90
19552;DHT22;9921;47.186;9.778;2024-01-30T07:11:30;0.50;99.90
19552;DHT22;9921;47.186;9.778;2024-01-30T07:13:59;0.50;99.90
19552;DHT22;9921;47.186;9.778;2024-01-30T07:16:26;0.50;99.90
19552;DHT22;9921;47.186;9.778;2024-01-30T07:18:52;0.50;99.90
19552;DHT22;9921;47.186;9.778;2024-01-30T07:21:19;0.50;99.90
19552;DHT22;9921;47.186;9.778;2024-01-30T07:23:50;0.60;99.90
19552;DHT22;9921;47.186;9.778;2024-01-30T07:26:16;0.60;99.90
19552;DHT22;9921;47.186;9.778;2024-01-30T07:28:43;0.70;99.90
19552;DHT22;9921;47.186;9.778;2024-01-30T07:31:12;0.80;99.90
19552;DHT22;9921;47.186;9.778;2024-01-30T07:33:38;0.90;99.90
19552;DHT22;9921;47.186;9.778;2024-01-30T07:36:06;0.90;99.90
19552;DHT22;9921;47.186;9.778;2024-01-30T07:38:33;0.90;99.90
19552;DHT22;9921;47.186;9.778;2024-01-30T07:40:59;1.00;99.90
19552;DHT22;9921;47.186;9.778;2024-01-30T07:43:26;1.00;99.90
19552;DHT22;9921;47.186;9.778;2024-01-30T07:45:53;1.10;99.90
19552;DHT22;9921;47.186;9.778;2024-01-30T07:48:21;1.20;99.90
19552;DHT22;9921;47.186;9.778;2024-01-30T07:50:48;1.20;99.90
19552;DHT22;9921;47.186;9.778;2024-01-30T07:53:16;1.30;99.90
19552;DHT22;9921;47.186;9.778;2024-01-30T07:55:42;1.30;99.90
19552;DHT22;9921;47.186;9.778;2024-01-30T07:58:12;1.40;99.90
19552;DHT22;9921;47.186;9.778;2024-01-30T08:00:39;1.50;99.90
19552;DHT22;9921;47.186;9.778;2024-01-30T08:03:06;1.50;99.90
19552;DHT22;9921;47.186;9.778;2024-01-30T08:05:34;1.60;99.90
19552;DHT22;9921;47.186;9.778;2024-01-30T08:08:01;1.60;99.90
19552;DHT22;9921;47.186;9.778;2024-01-30T08:10:27;1.70;99.90
19552;DHT22;9921;47.186;9.778;2024-01-30T08:12:54;1.70;99.90
19552;DHT22;9921;47.186;9.778;2024-01-30T08:15:21;1.80;99.90
19552;DHT22;9921;47.186;9.778;2024-01-30T08:17:48;2.10;99.90
19552;DHT22;9921;47.186;9.778;2024-01-30T08:20:15;2.60;99.90
19552;DHT22;9921;47.186;9.778;2024-01-30T08:22:43;3.00;99.90
19552;DHT22;9921;47.186;9.778;2024-01-30T08:25:10;3.40;99.90
19552;DHT22;9921;47.186;9.778;2024-01-30T08:27:37;3.60;99.90
19552;DHT22;9921;47.186;9.778;2024-01-30T08:30:06;3.70;99.90
19552;DHT22;9921;47.186;9.778;2024-01-30T08:32:33;3.80;99.90
19552;DHT22;9921;47.186;9.778;2024-01-30T08:35:00;4.00;99.90
19552;DHT22;9921;47.186;9.778;2024-01-30T08:37:29;4.30;99.90
19552;DHT22;9921;47.186;9.778;2024-01-30T08:39:57;4.50;99.90
19552;DHT22;9921;47.186;9.778;2024-01-30T08:42:24;4.80;99.90
19552;DHT22;9921;47.186;9.778;2024-01-30T08:44:51;4.90;99.90
19552;DHT22;9921;47.186;9.778;2024-01-30T08:47:19;5.10;99.90
19552;DHT22;9921;47.186;9.778;2024-01-30T08:49:46;5.10;99.90
19552;DHT22;9921;47.186;9.778;2024-01-30T08:52:13;5.40;99.90
19552;DHT22;9921;47.186;9.778;2024-01-30T08:54:40;5.50;99.90
19552;DHT22;9921;47.186;9.778;2024-01-30T08:57:08;5.70;99.90
19552;DHT22;9921;47.186;9.778;2024-01-30T08:59:35;5.80;99.90
19552;DHT22;9921;47.186;9.778;2024-01-30T09:02:02;5.90;99.90
19552;DHT22;9921;47.186;9.778;2024-01-30T09:04:29;6.00;99.90
19552;DHT22;9921;47.186;9.778;2024-01-30T09:06:56;6.00;99.90
19552;DHT22;9921;47.186;9.778;2024-01-30T09:09:23;5.90;99.90
19552;DHT22;9921;47.186;9.778;2024-01-30T09:11:50;5.90;99.90
19552;DHT22;9921;47.186;9.778;2024-01-30T09:14:18;5.90;99.90
19552;DHT22;9921;47.186;9.778;2024-01-30T09:16:45;5.90;99.90
19552;DHT22;9921;47.186;9.778;2024-01-30T09:19:14;6.10;99.90
19552;DHT22;9921;47.186;9.778;2024-01-30T09:21:41;6.20;99.90
19552;DHT22;9921;47.186;9.778;2024-01-30T09:24:11;6.30;99.90
19552;DHT22;9921;47.186;9.778;2024-01-30T09:26:37;6.30;99.90
19552;DHT22;9921;47.186;9.778;2024-01-30T09:29:04;6.30;99.90
19552;DHT22;9921;47.186;9.778;2024-01-30T09:31:33;6.20;99.90
19552;DHT22;9921;47.186;9.778;2024-01-30T09:34:00;6.20;99.90
19552;DHT22;9921;47.186;9.778;2024-01-30T09:36:26;6.20;99.90
19552;DHT22;9921;47.186;9.778;2024-01-30T09:39:00;6.30;99.90
19552;DHT22;9921;47.186;9.778;2024-01-30T09:41:29;6.40;99.90
19552;DHT22;9921;47.186;9.778;2024-01-30T09:44:01;6.60;99.90
19552;DHT22;9921;47.186;9.778;2024-01-30T09:46:31;6.70;99.90
19552;DHT22;9921;47.186;9.778;2024-01-30T09:49:00;7.00;99.90
19552;DHT22;9921;47.186;9.778;2024-01-30T09:51:29;7.10;99.90
19552;DHT22;9921;47.186;9.778;2024-01-30T09:53:57;7.40;99.90
19552;DHT22;9921;47.186;9.778;2024-01-30T09:56:25;7.60;99.90
19552;DHT22;9921;47.186;9.778;2024-01-30T09:58:52;7.70;99.90
19552;DHT22;9921;47.186;9.778;2024-01-30T10:01:20;7.70;99.90
19552;DHT22;9921;47.186;9.778;2024-01-30T10:03:47;7.70;99.90
19552;DHT22;9921;47.186;9.778;2024-01-30T10:06:16;7.80;99.90
19552;DHT22;9921;47.186;9.778;2024-01-30T10:08:43;8.00;99.90
19552;DHT22;9921;47.186;9.778;2024-01-30T10:11:10;8.20;99.90
19552;DHT22;9921;47.186;9.778;2024-01-30T10:13:39;8.40;99.90
19552;DHT22;9921;47.186;9.778;2024-01-30T10:16:06;8.60;99.90
19552;DHT22;9921;47.186;9.778;2024-01-30T10:18:33;8.80;99.90
19552;DHT22;9921;47.186;9.778;2024-01-30T10:21:00;9.10;99.90
19552;DHT22;9921;47.186;9.778;2024-01-30T10:23:31;9.20;99.90
19552;DHT22;9921;47.186;9.778;2024-01-30T10:25:58;9.40;99.90
19552;DHT22;9921;47.186;9.778;2024-01-30T10:28:27;9.50;99.90
19552;DHT22;9921;47.186;9.778;2024-01-30T10:30:58;9.60;99.90
19552;DHT22;9921;47.186;9.778;2024-01-30T10:33:26;9.50;99.90
19552;DHT22;9921;47.186;9.778;2024-01-30T10:35:55;9.50;99.90
19552;DHT22;9921;47.186;9.778;2024-01-30T10:38:27;9.40;99.90
19552;DHT22;9921;47.186;9.778;2024-01-30T10:40:58;9.40;99.90
19552;DHT22;9921;47.186;9.778;2024-01-30T10:43:31;9.30;99.90
19552;DHT22;9921;47.186;9.778;2024-01-30T10:46:11;9.20;99.90
19552;DHT22;9921;47.186;9.778;2024-01-30T10:48:43;9.10;99.90
19552;DHT22;9921;47.186;9.778;2024-01-30T10:51:11;9.10;99.90
19552;DHT22;9921;47.186;9.778;2024-01-30T10:53:39;9.00;99.90
19552;DHT22;9921;47.186;9.778;2024-01-30T10:56:08;9.00;99.90
19552;DHT22;9921;47.186;9.778;2024-01-30T10:58:36;9.10;99.90
19552;DHT22;9921;47.186;9.778;2024-01-30T11:01:04;9.20;99.90
19552;DHT22;9921;47.186;9.778;2024-01-30T11:03:32;9.30;99.90
19552;DHT22;9921;47.186;9.778;2024-01-30T11:06:00;9.40;99.90
19552;DHT22;9921;47.186;9.778;2024-01-30T11:08:27;9.60;99.90
19552;DHT22;9921;47.186;9.778;2024-01-30T11:10:56;9.70;99.90
19552;DHT22;9921;47.186;9.778;2024-01-30T11:13:29;9.70;99.90
19552;DHT22;9921;47.186;9.778;2024-01-30T11:16:00;9.80;99.90
19552;DHT22;9921;47.186;9.778;2024-01-30T11:18:29;9.90;99.90
19552;DHT22;9921;47.186;9.778;2024-01-30T11:20:57;10.00;99.90
19552;DHT22;9921;47.186;9.778;2024-01-30T11:23:25;10.10;99.90
19552;DHT22;9921;47.186;9.778;2024-01-30T11:25:52;10.20;99.90
19552;DHT22;9921;47.186;9.778;2024-01-30T11:28:21;10.30;99.90
19552;DHT22;9921;47.186;9.778;2024-01-30T11:30:50;10.50;99.90
19552;DHT22;9921;47.186;9.778;2024-01-30T11:33:28;10.60;99.90
19552;DHT22;9921;47.186;9.778;2024-01-30T11:35:57;10.70;99.90
19552;DHT22;9921;47.186;9.778;2024-01-30T11:38:26;10.90;99.90
19552;DHT22;9921;47.186;9.778;2024-01-30T11:40:54;11.00;99.90
19552;DHT22;9921;47.186;9.778;2024-01-30T11:43:21;11.10;99.90
19552;DHT22;9921;47.186;9.778;2024-01-30T11:45:50;11.20;99.90
19552;DHT22;9921;47.186;9.778;2024-01-30T11:48:17;11.40;99.90
19552;DHT22;9921;47.186;9.778;2024-01-30T11:50:44;11.40;99.90
19552;DHT22;9921;47.186;9.778;2024-01-30T11:53:11;11.50;99.90
19552;DHT22;9921;47.186;9.778;2024-01-30T11:55:38;11.50;99.90
19552;DHT22;9921;47.186;9.778;2024-01-30T11:58:05;11.50;99.90
19552;DHT22;9921;47.186;9.778;2024-01-30T12:00:32;11.70;99.90
19552;DHT22;9921;47.186;9.778;2024-01-30T12:03:01;11.70;99.90
19552;DHT22;9921;47.186;9.778;2024-01-30T12:05:29;11.70;99.90
19552;DHT22;9921;47.186;9.778;2024-01-30T12:07:55;11.80;99.90
19552;DHT22;9921;47.186;9.778;2024-01-30T12:10:24;11.80;99.90
19552;DHT22;9921;47.186;9.778;2024-01-30T12:12:52;11.80;99.90
19552;DHT22;9921;47.186;9.778;2024-01-30T12:15:21;11.80;99.90
19552;DHT22;9921;47.186;9.778;2024-01-30T12:17:48;11.80;99.90
19552;DHT22;9921;47.186;9.778;2024-01-30T12:20:18;11.70;99.90
19552;DHT22;9921;47.186;9.778;2024-01-30T12:22:47;11.80;99.90
19552;DHT22;9921;47.186;9.778;2024-01-30T12:25:15;11.80;99.90
19552;DHT22;9921;47.186;9.778;2024-01-30T12:27:43;11.80;99.90
19552;DHT22;9921;47.186;9.778;2024-01-30T12:30:12;11.80;99.90
19552;DHT22;9921;47.186;9.778;2024-01-30T12:32:40;11.70;99.90
19552;DHT22;9921;47.186;9.778;2024-01-30T12:35:08;11.70;99.90
19552;DHT22;9921;47.186;9.778;2024-01-30T12:37:36;11.80;99.90
19552;DHT22;9921;47.186;9.778;2024-01-30T12:40:04;11.90;99.90
19552;DHT22;9921;47.186;9.778;2024-01-30T12:42:31;11.90;99.90
19552;DHT22;9921;47.186;9.778;2024-01-30T12:44:58;11.80;99.90
19552;DHT22;9921;47.186;9.778;2024-01-30T12:47:25;11.90;99.90
19552;DHT22;9921;47.186;9.778;2024-01-30T12:49:52;11.90;99.90
19552;DHT22;9921;47.186;9.778;2024-01-30T12:52:20;11.90;99.90
19552;DHT22;9921;47.186;9.778;2024-01-30T12:54:51;12.00;99.90
19552;DHT22;9921;47.186;9.778;2024-01-30T12:57:18;12.10;99.90
19552;DHT22;9921;47.186;9.778;2024-01-30T12:59:46;12.20;99.90
19552;DHT22;9921;47.186;9.778;2024-01-30T13:02:13;12.30;99.90
19552;DHT22;9921;47.186;9.778;2024-01-30T13:04:40;12.30;99.90
19552;DHT22;9921;47.186;9.778;2024-01-30T13:07:07;12.30;99.90
19552;DHT22;9921;47.186;9.778;2024-01-30T13:09:34;12.30;99.90
19552;DHT22;9921;47.186;9.778;2024-01-30T13:12:03;12.50;99.90
19552;DHT22;9921;47.186;9.778;2024-01-30T13:14:30;12.50;99.90
19552;DHT22;9921;47.186;9.778;2024-01-30T13:16:58;12.50;99.90
19552;DHT22;9921;47.186;9.778;2024-01-30T13:19:25;12.50;99.90
19552;DHT22;9921;47.186;9.778;2024-01-30T13:21:52;12.50;99.90
19552;DHT22;9921;47.186;9.778;2024-01-30T13:24:19;12.50;99.90
19552;DHT22;9921;47.186;9.778;2024-01-30T13:26:47;12.50;99.90
19552;DHT22;9921;47.186;9.778;2024-01-30T13:29:16;12.50;99.90
19552;DHT22;9921;47.186;9.778;2024-01-30T13:31:43;12.50;99.90
19552;DHT22;9921;47.186;9.778;2024-01-30T13:34:11;12.50;99.90
19552;DHT22;9921;47.186;9.778;2024-01-30T13:36:39;12.50;99.90
19552;DHT22;9921;47.186;9.778;2024-01-30T13:39:08;12.40;99.90
19552;DHT22;9921;47.186;9.778;2024-01-30T13:41:38;12.40;99.90
19552;DHT22;9921;47.186;9.778;2024-01-30T13:44:05;12.40;99.90
19552;DHT22;9921;47.186;9.778;2024-01-30T13:46:33;12.30;99.90
19552;DHT22;9921;47.186;9.778;2024-01-30T13:49:00;12.10;99.90
19552;DHT22;9921;47.186;9.778;2024-01-30T13:51:27;12.00;99.90
19552;DHT22;9921;47.186;9.778;2024-01-30T13:53:54;11.90;99.90
19552;DHT22;9921;47.186;9.778;2024-01-30T13:56:21;11.80;99.90
19552;DHT22;9921;47.186;9.778;2024-01-30T13:58:48;11.70;99.90
19552;DHT22;9921;47.186;9.778;2024-01-30T14:01:16;11.70;99.90
19552;DHT22;9921;47.186;9.778;2024-01-30T14:03:44;11.70;99.90
19552;DHT22;9921;47.186;9.778;2024-01-30T14:06:11;11.70;99.90
19552;DHT22;9921;47.186;9.778;2024-01-30T14:08:38;11.70;99.90
19552;DHT22;9921;47.186;9.778;2024-01-30T14:11:05;11.70;99.90
19552;DHT22;9921;47.186;9.778;2024-01-30T14:13:32;11.80;99.90
19552;DHT22;9921;47.186;9.778;2024-01-30T14:15:59;11.90;99.90
19552;DHT22;9921;47.186;9.778;2024-01-30T14:18:26;11.90;99.90
19552;DHT22;9921;47.186;9.778;2024-01-30T14:20:54;12.00;99.90
19552;DHT22;9921;47.186;9.778;2024-01-30T14:23:21;12.00;99.90
19552;DHT22;9921;47.186;9.778;2024-01-30T14:25:48;12.00;99.90
19552;DHT22;9921;47.186;9.778;2024-01-30T14:28:17;12.00;99.90
19552;DHT22;9921;47.186;9.778;2024-01-30T14:30:44;12.00;99.90
19552;DHT22;9921;47.186;9.778;2024-01-30T14:33:10;12.10;99.90
19552;DHT22;9921;47.186;9.778;2024-01-30T14:35:38;12.00;99.90
19552;DHT22;9921;47.186;9.778;2024-01-30T14:38:06;12.00;99.90
19552;DHT22;9921;47.186;9.778;2024-01-30T14:40:33;11.90;99.90
19552;DHT22;9921;47.186;9.778;2024-01-30T14:43:00;11.80;99.90
19552;DHT22;9921;47.186;9.778;2024-01-30T14:45:30;11.70;99.90
19552;DHT22;9921;47.186;9.778;2024-01-30T14:47:58;11.50;99.90
19552;DHT22;9921;47.186;9.778;2024-01-30T14:50:25;11.30;99.90
19552;DHT22;9921;47.186;9.778;2024-01-30T14:52:53;11.20;99.90
19552;DHT22;9921;47.186;9.778;2024-01-30T14:55:22;11.10;99.90
19552;DHT22;9921;47.186;9.778;2024-01-30T14:57:49;11.00;99.90
19552;DHT22;9921;47.186;9.778;2024-01-30T15:00:17;10.80;99.90
19552;DHT22;9921;47.186;9.778;2024-01-30T15:02:44;10.70;99.90
19552;DHT22;9921;47.186;9.778;2024-01-30T15:05:12;10.60;99.90
19552;DHT22;9921;47.186;9.778;2024-01-30T15:07:39;10.50;99.90
19552;DHT22;9921;47.186;9.778;2024-01-30T15:10:07;10.30;99.90
19552;DHT22;9921;47.186;9.778;2024-01-30T15:12:35;10.20;99.90
19552;DHT22;9921;47.186;9.778;2024-01-30T15:15:03;10.10;99.90
19552;DHT22;9921;47.186;9.778;2024-01-30T15:17:30;10.00;99.90
19552;DHT22;9921;47.186;9.778;2024-01-30T15:19:56;9.80;99.90
19552;DHT22;9921;47.186;9.778;2024-01-30T15:22:24;9.70;99.90
19552;DHT22;9921;47.186;9.778;2024-01-30T15:24:50;9.50;99.90
19552;DHT22;9921;47.186;9.778;2024-01-30T15:27:17;9.30;99.90
19552;DHT22;9921;47.186;9.778;2024-01-30T15:29:46;9.20;99.90
19552;DHT22;9921;47.186;9.778;2024-01-30T15:32:13;9.10;99.90
19552;DHT22;9921;47.186;9.778;2024-01-30T15:34:40;9.00;99.90
19552;DHT22;9921;47.186;9.778;2024-01-30T15:37:07;8.90;99.90
19552;DHT22;9921;47.186;9.778;2024-01-30T15:39:34;8.70;99.90
19552;DHT22;9921;47.186;9.778;2024-01-30T15:42:01;8.60;99.90
19552;DHT22;9921;47.186;9.778;2024-01-30T15:44:28;8.50;99.90
19552;DHT22;9921;47.186;9.778;2024-01-30T15:46:57;8.40;99.90
19552;DHT22;9921;47.186;9.778;2024-01-30T15:49:25;8.30;99.90
19552;DHT22;9921;47.186;9.778;2024-01-30T15:51:51;8.20;99.90
19552;DHT22;9921;47.186;9.778;2024-01-30T15:54:18;8.20;99.90
19552;DHT22;9921;47.186;9.778;2024-01-30T15:56:46;8.00;99.90
19552;DHT22;9921;47.186;9.778;2024-01-30T15:59:13;7.80;99.90